sensor_id;sensor_type;location;lat;lon;timestamp;temperature;humidity
1107;DHT22;540;49.448;8.612;2023-02-11T00:01:12;2.30;97.00
1107;DHT22;540;49.448;8.612;2023-02-11T00:03:44;2.60;97.10
1107;DHT22;540;49.448;8.612;2023-02-11T00:06:12;2.60;97.20
1107;DHT22;540;49.448;8.612;2023-02-11T00:08:40;2.70;97.30
1107;DHT22;540;49.448;8.612;2023-02-11T00:11:11;2.30;97.30
1107;DHT22;540;49.448;8.612;2023-02-11T00:13:40;2.30;97.10
1107;DHT22;540;49.448;8.612;2023-02-11T00:16:09;2.70;97.40
1107;DHT22;540;49.448;8.612;2023-02-11T00:18:37;2.50;97.40
1107;DHT22;540;49.448;8.612;2023-02-11T00:21:08;2.70;97.60
1107;DHT22;540;49.448;8.612;2023-02-11T00:23:36;2.50;97.60
1107;DHT22;540;49.448;8.612;2023-02-11T00:26:11;2.50;98.00
1107;DHT22;540;49.448;8.612;2023-02-11T00:28:39;2.30;98.20
1107;DHT22;540;49.448;8.612;2023-02-11T00:31:06;2.60;97.30
1107;DHT22;540;49.448;8.612;2023-02-11T00:33:34;2.70;97.50
1107;DHT22;540;49.448;8.612;2023-02-11T00:36:03;2.70;97.80
1107;DHT22;540;49.448;8.612;2023-02-11T00:38:33;2.50;97.00
1107;DHT22;540;49.448;8.612;2023-02-11T00:41:01;2.70;97.20
1107;DHT22;540;49.448;8.612;2023-02-11T00:43:29;2.80;97.50
1107;DHT22;540;49.448;8.612;2023-02-11T00:45:56;2.90;97.50
1107;DHT22;540;49.448;8.612;2023-02-11T00:48:24;2.60;96.60
1107;DHT22;540;49.448;8.612;2023-02-11T00:50:52;2.70;96.80
1107;DHT22;540;49.448;8.612;2023-02-11T00:53:20;2.90;96.30
1107;DHT22;540;49.448;8.612;2023-02-11T00:55:50;3.00;96.40
1107;DHT22;540;49.448;8.612;2023-02-11T00:58:18;2.50;96.80
1107;DHT22;540;49.448;8.612;2023-02-11T01:00:46;2.80;97.10
1107;DHT22;540;49.448;8.612;2023-02-11T01:03:14;2.70;96.90
1107;DHT22;540;49.448;8.612;2023-02-11T01:05:42;2.70;97.20
1107;DHT22;540;49.448;8.612;2023-02-11T01:08:10;2.80;97.50
1107;DHT22;540;49.448;8.612;2023-02-11T01:10:38;2.60;97.30
1107;DHT22;540;49.448;8.612;2023-02-11T01:13:07;2.60;97.50
1107;DHT22;540;49.448;8.612;2023-02-11T01:15:34;2.40;98.10
1107;DHT22;540;49.448;8.612;2023-02-11T01:18:03;2.50;98.00
1107;DHT22;540;49.448;8.612;2023-02-11T01:20:31;2.40;97.90
1107;DHT22;540;49.448;8.612;2023-02-11T01:22:59;2.70;97.90
1107;DHT22;540;49.448;8.612;2023-02-11T01:25:27;2.40;98.00
1107;DHT22;540;49.448;8.612;2023-02-11T01:27:55;2.60;97.90
1107;DHT22;540;49.448;8.612;2023-02-11T01:30:24;2.40;97.60
1107;DHT22;540;49.448;8.612;2023-02-11T01:32:52;2.60;97.90
1107;DHT22;540;49.448;8.612;2023-02-11T01:35:19;2.50;97.80
1107;DHT22;540;49.448;8.612;2023-02-11T01:37:47;2.50;97.70
1107;DHT22;540;49.448;8.612;2023-02-11T01:40:16;2.60;98.00
1107;DHT22;540;49.448;8.612;2023-02-11T01:42:44;2.70;97.80
1107;DHT22;540;49.448;8.612;2023-02-11T01:48:28;2.70;97.80
1107;DHT22;540;49.448;8.612;2023-02-11T01:51:02;2.60;97.20
1107;DHT22;540;49.448;8.612;2023-02-11T01:53:31;2.80;97.70
1107;DHT22;540;49.448;8.612;2023-02-11T01:56:17;2.90;97.30
1107;DHT22;540;49.448;8.612;2023-02-11T01:59:08;2.80;98.10
1107;DHT22;540;49.448;8.612;2023-02-11T02:01:39;2.70;98.30
1107;DHT22;540;49.448;8.612;2023-02-11T02:04:10;2.70;98.20
1107;DHT22;540;49.448;8.612;2023-02-11T02:06:43;2.70;98.30
1107;DHT22;540;49.448;8.612;2023-02-11T02:09:15;2.70;98.00
1107;DHT22;540;49.448;8.612;2023-02-11T02:11:44;2.80;98.00
1107;DHT22;540;49.448;8.612;2023-02-11T02:14:12;2.80;98.60
1107;DHT22;540;49.448;8.612;2023-02-11T02:16:40;2.60;98.60
1107;DHT22;540;49.448;8.612;2023-02-11T02:23:04;2.70;99.00
1107;DHT22;540;49.448;8.612;2023-02-11T02:25:51;2.50;99.00
1107;DHT22;540;49.448;8.612;2023-02-11T02:28:41;2.40;99.80
1107;DHT22;540;49.448;8.612;2023-02-11T02:34:13;2.30;99.60
1107;DHT22;540;49.448;8.612;2023-02-11T02:36:48;2.20;99.80
1107;DHT22;540;49.448;8.612;2023-02-11T02:39:21;2.30;99.70
1107;DHT22;540;49.448;8.612;2023-02-11T02:41:51;2.40;99.90
1107;DHT22;540;49.448;8.612;2023-02-11T02:44:20;2.50;99.70
1107;DHT22;540;49.448;8.612;2023-02-11T02:46:48;2.50;99.60
1107;DHT22;540;49.448;8.612;2023-02-11T02:49:17;2.20;99.50
1107;DHT22;540;49.448;8.612;2023-02-11T02:51:57;2.70;99.90
1107;DHT22;540;49.448;8.612;2023-02-11T02:54:47;2.40;99.40
1107;DHT22;540;49.448;8.612;2023-02-11T02:57:28;2.30;99.80
1107;DHT22;540;49.448;8.612;2023-02-11T03:00:12;2.50;99.80
1107;DHT22;540;49.448;8.612;2023-02-11T03:02:48;2.70;99.90
1107;DHT22;540;49.448;8.612;2023-02-11T03:05:22;2.50;99.40
1107;DHT22;540;49.448;8.612;2023-02-11T03:07:56;2.40;99.60
1107;DHT22;540;49.448;8.612;2023-02-11T03:10:27;2.50;99.40
1107;DHT22;540;49.448;8.612;2023-02-11T03:12:57;2.40;99.30
1107;DHT22;540;49.448;8.612;2023-02-11T03:15:28;2.40;99.70
1107;DHT22;540;49.448;8.612;2023-02-11T03:17:58;2.50;99.50
1107;DHT22;540;49.448;8.612;2023-02-11T03:20:29;2.40;99.40
1107;DHT22;540;49.448;8.612;2023-02-11T03:23:03;2.60;99.60
1107;DHT22;540;49.448;8.612;2023-02-11T03:25:37;2.70;99.80
1107;DHT22;540;49.448;8.612;2023-02-11T03:28:11;2.70;99.70
1107;DHT22;540;49.448;8.612;2023-02-11T03:30:44;2.40;99.80
1107;DHT22;540;49.448;8.612;2023-02-11T03:33:17;2.50;99.50
1107;DHT22;540;49.448;8.612;2023-02-11T03:35:50;2.50;99.70
1107;DHT22;540;49.448;8.612;2023-02-11T03:38:21;2.60;99.90
1107;DHT22;540;49.448;8.612;2023-02-11T03:40:53;2.40;99.30
1107;DHT22;540;49.448;8.612;2023-02-11T03:43:25;2.70;99.90
1107;DHT22;540;49.448;8.612;2023-02-11T03:45:55;2.60;99.10
1107;DHT22;540;49.448;8.612;2023-02-11T03:48:26;2.50;98.80
1107;DHT22;540;49.448;8.612;2023-02-11T03:50:57;2.50;99.10
1107;DHT22;540;49.448;8.612;2023-02-11T03:53:26;2.50;99.70
1107;DHT22;540;49.448;8.612;2023-02-11T03:55:55;2.50;99.90
1107;DHT22;540;49.448;8.612;2023-02-11T03:58:26;2.40;99.90
1107;DHT22;540;49.448;8.612;2023-02-11T04:00:54;2.70;99.90
1107;DHT22;540;49.448;8.612;2023-02-11T04:03:22;2.50;99.70
1107;DHT22;540;49.448;8.612;2023-02-11T04:05:50;2.40;99.90
1107;DHT22;540;49.448;8.612;2023-02-11T04:08:19;2.50;99.80
1107;DHT22;540;49.448;8.612;2023-02-11T04:10:47;2.60;99.40
1107;DHT22;540;49.448;8.612;2023-02-11T04:13:15;2.40;99.40
1107;DHT22;540;49.448;8.612;2023-02-11T04:15:43;2.50;99.80
1107;DHT22;540;49.448;8.612;2023-02-11T04:18:14;2.60;99.60
1107;DHT22;540;49.448;8.612;2023-02-11T04:20:42;2.50;99.60
1107;DHT22;540;49.448;8.612;2023-02-11T04:23:09;2.50;99.80
1107;DHT22;540;49.448;8.612;2023-02-11T04:25:38;2.60;99.90
1107;DHT22;540;49.448;8.612;2023-02-11T04:28:06;2.50;99.90
1107;DHT22;540;49.448;8.612;2023-02-11T04:30:34;2.50;99.40
1107;DHT22;540;49.448;8.612;2023-02-11T04:33:02;2.00;99.30
1107;DHT22;540;49.448;8.612;2023-02-11T04:35:30;2.60;99.60
1107;DHT22;540;49.448;8.612;2023-02-11T04:37:58;2.40;99.60
1107;DHT22;540;49.448;8.612;2023-02-11T04:40:25;2.50;99.90
1107;DHT22;540;49.448;8.612;2023-02-11T04:42:55;2.40;99.90
1107;DHT22;540;49.448;8.612;2023-02-11T04:45:23;2.70;99.90
1107;DHT22;540;49.448;8.612;2023-02-11T04:47:50;2.40;99.90
1107;DHT22;540;49.448;8.612;2023-02-11T04:50:18;2.40;99.90
1107;DHT22;540;49.448;8.612;2023-02-11T04:52:46;2.40;99.90
1107;DHT22;540;49.448;8.612;2023-02-11T04:55:14;2.40;99.90
1107;DHT22;540;49.448;8.612;2023-02-11T04:57:42;2.60;99.90
1107;DHT22;540;49.448;8.612;2023-02-11T05:00:12;2.50;99.90
1107;DHT22;540;49.448;8.612;2023-02-11T05:02:40;2.20;99.90
1107;DHT22;540;49.448;8.612;2023-02-11T05:05:08;2.30;99.90
1107;DHT22;540;49.448;8.612;2023-02-11T05:07:36;2.40;99.90
1107;DHT22;540;49.448;8.612;2023-02-11T05:10:04;2.40;99.90
1107;DHT22;540;49.448;8.612;2023-02-11T05:12:31;2.40;99.90
1107;DHT22;540;49.448;8.612;2023-02-11T05:14:59;2.80;99.90
1107;DHT22;540;49.448;8.612;2023-02-11T05:17:28;2.60;99.90
1107;DHT22;540;49.448;8.612;2023-02-11T05:19:56;2.60;99.90
1107;DHT22;540;49.448;8.612;2023-02-11T05:22:24;2.60;99.90
1107;DHT22;540;49.448;8.612;2023-02-11T05:24:52;2.80;99.90
1107;DHT22;540;49.448;8.612;2023-02-11T05:27:19;2.90;99.90
1107;DHT22;540;49.448;8.612;2023-02-11T05:29:47;2.40;99.90
1107;DHT22;540;49.448;8.612;2023-02-11T05:32:15;2.40;99.90
1107;DHT22;540;49.448;8.612;2023-02-11T05:34:44;2.40;99.90
1107;DHT22;540;49.448;8.612;2023-02-11T05:37:12;2.50;99.90
1107;DHT22;540;49.448;8.612;2023-02-11T05:39:40;2.60;99.90
1107;DHT22;540;49.448;8.612;2023-02-11T05:42:08;2.60;99.90
1107;DHT22;540;49.448;8.612;2023-02-11T05:44:36;2.50;99.90
1107;DHT22;540;49.448;8.612;2023-02-11T05:47:04;2.50;99.90
1107;DHT22;540;49.448;8.612;2023-02-11T05:49:34;2.40;99.90
1107;DHT22;540;49.448;8.612;2023-02-11T05:52:03;2.80;99.90
1107;DHT22;540;49.448;8.612;2023-02-11T05:54:31;2.80;99.90
1107;DHT22;540;49.448;8.612;2023-02-11T05:56:59;2.80;99.90
1107;DHT22;540;49.448;8.612;2023-02-11T05:59:26;2.50;99.90
1107;DHT22;540;49.448;8.612;2023-02-11T06:01:54;2.60;99.90
1107;DHT22;540;49.448;8.612;2023-02-11T06:04:22;2.60;99.90
1107;DHT22;540;49.448;8.612;2023-02-11T06:06:50;2.70;99.90
1107;DHT22;540;49.448;8.612;2023-02-11T06:09:19;2.70;99.90
1107;DHT22;540;49.448;8.612;2023-02-11T06:11:47;2.70;99.90
1107;DHT22;540;49.448;8.612;2023-02-11T06:14:14;2.60;99.90
1107;DHT22;540;49.448;8.612;2023-02-11T06:16:42;2.70;99.90
1107;DHT22;540;49.448;8.612;2023-02-11T06:19:11;2.60;99.90
1107;DHT22;540;49.448;8.612;2023-02-11T06:21:39;2.70;99.90
1107;DHT22;540;49.448;8.612;2023-02-11T06:24:10;2.60;99.90
1107;DHT22;540;49.448;8.612;2023-02-11T06:26:39;2.60;99.90
1107;DHT22;540;49.448;8.612;2023-02-11T06:29:07;2.50;99.90
1107;DHT22;540;49.448;8.612;2023-02-11T06:31:36;2.50;99.90
1107;DHT22;540;49.448;8.612;2023-02-11T06:34:04;2.50;99.90
1107;DHT22;540;49.448;8.612;2023-02-11T06:36:32;2.50;99.90
1107;DHT22;540;49.448;8.612;2023-02-11T06:39:00;2.50;99.90
1107;DHT22;540;49.448;8.612;2023-02-11T06:41:27;2.60;99.90
1107;DHT22;540;49.448;8.612;2023-02-11T06:43:56;2.60;99.90
1107;DHT22;540;49.448;8.612;2023-02-11T06:46:24;2.60;99.90
1107;DHT22;540;49.448;8.612;2023-02-11T06:48:52;2.60;99.90
1107;DHT22;540;49.448;8.612;2023-02-11T06:51:20;2.40;99.90
1107;DHT22;540;49.448;8.612;2023-02-11T06:53:48;2.70;99.90
1107;DHT22;540;49.448;8.612;2023-02-11T06:56:18;2.50;99.90
1107;DHT22;540;49.448;8.612;2023-02-11T06:58:46;2.40;99.90
1107;DHT22;540;49.448;8.612;2023-02-11T07:01:15;2.70;99.90
1107;DHT22;540;49.448;8.612;2023-02-11T07:03:44;2.40;99.90
1107;DHT22;540;49.448;8.612;2023-02-11T07:06:14;2.70;99.90
1107;DHT22;540;49.448;8.612;2023-02-11T07:08:42;2.30;99.90
1107;DHT22;540;49.448;8.612;2023-02-11T07:11:13;2.40;99.90
1107;DHT22;540;49.448;8.612;2023-02-11T07:13:41;2.40;99.90
1107;DHT22;540;49.448;8.612;2023-02-11T07:16:12;2.60;99.90
1107;DHT22;540;49.448;8.612;2023-02-11T07:18:42;2.50;99.90
1107;DHT22;540;49.448;8.612;2023-02-11T07:21:12;2.60;99.90
1107;DHT22;540;49.448;8.612;2023-02-11T07:23:40;2.50;99.90
1107;DHT22;540;49.448;8.612;2023-02-11T07:26:11;2.50;99.90
1107;DHT22;540;49.448;8.612;2023-02-11T07:28:40;2.60;99.90
1107;DHT22;540;49.448;8.612;2023-02-11T07:31:10;2.80;99.90
1107;DHT22;540;49.448;8.612;2023-02-11T07:33:38;2.60;99.60
1107;DHT22;540;49.448;8.612;2023-02-11T07:36:09;2.70;99.60
1107;DHT22;540;49.448;8.612;2023-02-11T07:38:37;2.70;99.20
1107;DHT22;540;49.448;8.612;2023-02-11T07:41:08;2.80;98.60
1107;DHT22;540;49.448;8.612;2023-02-11T07:43:37;2.70;98.90
1107;DHT22;540;49.448;8.612;2023-02-11T07:46:06;3.00;98.60
1107;DHT22;540;49.448;8.612;2023-02-11T07:48:34;3.00;98.40
1107;DHT22;540;49.448;8.612;2023-02-11T07:51:09;3.10;97.90
1107;DHT22;540;49.448;8.612;2023-02-11T07:53:37;3.00;98.10
1107;DHT22;540;49.448;8.612;2023-02-11T07:56:06;3.50;98.00
1107;DHT22;540;49.448;8.612;2023-02-11T07:58:34;3.80;95.60
1107;DHT22;540;49.448;8.612;2023-02-11T08:01:03;3.90;94.00
1107;DHT22;540;49.448;8.612;2023-02-11T08:03:32;4.10;93.60
1107;DHT22;540;49.448;8.612;2023-02-11T08:06:02;4.10;93.10
1107;DHT22;540;49.448;8.612;2023-02-11T08:08:32;4.60;93.20
1107;DHT22;540;49.448;8.612;2023-02-11T08:11:05;4.90;91.50
1107;DHT22;540;49.448;8.612;2023-02-11T08:13:33;5.20;90.40
1107;DHT22;540;49.448;8.612;2023-02-11T08:16:01;5.60;88.00
1107;DHT22;540;49.448;8.612;2023-02-11T08:18:30;5.70;85.30
1107;DHT22;540;49.448;8.612;2023-02-11T08:21:03;5.90;82.80
1107;DHT22;540;49.448;8.612;2023-02-11T08:23:34;6.10;80.60
1107;DHT22;540;49.448;8.612;2023-02-11T08:26:04;6.60;80.70
1107;DHT22;540;49.448;8.612;2023-02-11T08:28:34;6.70;78.40
1107;DHT22;540;49.448;8.612;2023-02-11T08:31:04;6.60;76.30
1107;DHT22;540;49.448;8.612;2023-02-11T08:33:33;7.40;76.10
1107;DHT22;540;49.448;8.612;2023-02-11T08:36:01;6.90;73.80
1107;DHT22;540;49.448;8.612;2023-02-11T08:38:35;7.50;72.70
1107;DHT22;540;49.448;8.612;2023-02-11T08:41:03;7.80;73.00
1107;DHT22;540;49.448;8.612;2023-02-11T08:43:31;7.70;71.40
1107;DHT22;540;49.448;8.612;2023-02-11T08:46:00;7.00;72.10
1107;DHT22;540;49.448;8.612;2023-02-11T08:48:28;6.40;75.20
1107;DHT22;540;49.448;8.612;2023-02-11T08:50:57;6.00;77.50
1107;DHT22;540;49.448;8.612;2023-02-11T08:53:24;6.00;79.00
1107;DHT22;540;49.448;8.612;2023-02-11T08:55:55;5.60;79.60
1107;DHT22;540;49.448;8.612;2023-02-11T08:58:23;5.90;81.40
1107;DHT22;540;49.448;8.612;2023-02-11T09:00:51;5.70;80.90
1107;DHT22;540;49.448;8.612;2023-02-11T09:03:21;5.70;82.70
1107;DHT22;540;49.448;8.612;2023-02-11T09:05:51;5.40;82.10
1107;DHT22;540;49.448;8.612;2023-02-11T09:08:21;5.50;83.80
1107;DHT22;540;49.448;8.612;2023-02-11T09:10:51;5.40;83.70
1107;DHT22;540;49.448;8.612;2023-02-11T09:13:22;5.80;84.50
1107;DHT22;540;49.448;8.612;2023-02-11T09:15:52;6.50;82.60
1107;DHT22;540;49.448;8.612;2023-02-11T09:18:21;7.60;78.80
1107;DHT22;540;49.448;8.612;2023-02-11T09:20:51;8.00;75.80
1107;DHT22;540;49.448;8.612;2023-02-11T09:23:21;7.80;74.80
1107;DHT22;540;49.448;8.612;2023-02-11T09:25:51;8.00;72.70
1107;DHT22;540;49.448;8.612;2023-02-11T09:28:22;8.60;70.70
1107;DHT22;540;49.448;8.612;2023-02-11T09:30:52;9.40;68.00
1107;DHT22;540;49.448;8.612;2023-02-11T09:33:22;9.90;64.90
1107;DHT22;540;49.448;8.612;2023-02-11T09:35:52;9.90;63.00
1107;DHT22;540;49.448;8.612;2023-02-11T09:38:22;10.30;62.30
1107;DHT22;540;49.448;8.612;2023-02-11T09:40:52;10.20;60.70
1107;DHT22;540;49.448;8.612;2023-02-11T09:43:30;10.20;60.30
1107;DHT22;540;49.448;8.612;2023-02-11T09:46:01;10.30;60.20
1107;DHT22;540;49.448;8.612;2023-02-11T09:48:38;10.40;59.70
1107;DHT22;540;49.448;8.612;2023-02-11T09:51:15;10.40;59.50
1107;DHT22;540;49.448;8.612;2023-02-11T09:53:47;10.40;60.10
1107;DHT22;540;49.448;8.612;2023-02-11T09:56:19;9.40;62.00
1107;DHT22;540;49.448;8.612;2023-02-11T09:58:50;9.20;64.00
1107;DHT22;540;49.448;8.612;2023-02-11T10:01:26;8.70;65.00
1107;DHT22;540;49.448;8.612;2023-02-11T10:04:03;8.70;66.70
1107;DHT22;540;49.448;8.612;2023-02-11T10:06:42;8.90;68.00
1107;DHT22;540;49.448;8.612;2023-02-11T10:09:29;8.70;67.90
1107;DHT22;540;49.448;8.612;2023-02-11T10:12:14;8.50;68.90
1107;DHT22;540;49.448;8.612;2023-02-11T10:15:07;8.60;69.50
1107;DHT22;540;49.448;8.612;2023-02-11T10:17:46;8.40;69.20
1107;DHT22;540;49.448;8.612;2023-02-11T10:20:24;8.50;69.00
1107;DHT22;540;49.448;8.612;2023-02-11T10:22:57;8.20;70.00
1107;DHT22;540;49.448;8.612;2023-02-11T10:25:32;8.50;70.30
1107;DHT22;540;49.448;8.612;2023-02-11T10:28:10;8.40;69.80
1107;DHT22;540;49.448;8.612;2023-02-11T10:30:42;8.90;70.60
1107;DHT22;540;49.448;8.612;2023-02-11T10:33:21;8.90;69.50
1107;DHT22;540;49.448;8.612;2023-02-11T10:35:49;8.70;69.60
1107;DHT22;540;49.448;8.612;2023-02-11T10:38:17;9.00;69.90
1107;DHT22;540;49.448;8.612;2023-02-11T10:40:45;9.00;69.50
1107;DHT22;540;49.448;8.612;2023-02-11T10:43:15;8.90;68.70
1107;DHT22;540;49.448;8.612;2023-02-11T10:45:47;8.90;68.70
1107;DHT22;540;49.448;8.612;2023-02-11T10:48:38;8.80;69.40
1107;DHT22;540;49.448;8.612;2023-02-11T10:51:07;9.20;69.20
1107;DHT22;540;49.448;8.612;2023-02-11T10:53:40;9.50;67.70
1107;DHT22;540;49.448;8.612;2023-02-11T10:56:11;9.60;66.80
1107;DHT22;540;49.448;8.612;2023-02-11T10:58:44;9.40;67.00
1107;DHT22;540;49.448;8.612;2023-02-11T11:01:14;9.00;68.00
1107;DHT22;540;49.448;8.612;2023-02-11T11:03:51;9.40;68.00
1107;DHT22;540;49.448;8.612;2023-02-11T11:06:29;9.90;67.20
1107;DHT22;540;49.448;8.612;2023-02-11T11:08:57;9.70;67.00
1107;DHT22;540;49.448;8.612;2023-02-11T11:11:25;9.90;67.90
1107;DHT22;540;49.448;8.612;2023-02-11T11:13:56;9.90;66.50
1107;DHT22;540;49.448;8.612;2023-02-11T11:16:27;10.10;65.60
1107;DHT22;540;49.448;8.612;2023-02-11T11:19:14;10.30;64.90
1107;DHT22;540;49.448;8.612;2023-02-11T11:21:43;10.50;64.30
1107;DHT22;540;49.448;8.612;2023-02-11T11:24:17;11.40;62.60
1107;DHT22;540;49.448;8.612;2023-02-11T11:26:48;11.40;60.30
1107;DHT22;540;49.448;8.612;2023-02-11T11:29:18;11.90;60.10
1107;DHT22;540;49.448;8.612;2023-02-11T11:31:50;11.50;59.50
1107;DHT22;540;49.448;8.612;2023-02-11T11:34:22;11.20;59.90
1107;DHT22;540;49.448;8.612;2023-02-11T11:36:54;11.20;60.10
1107;DHT22;540;49.448;8.612;2023-02-11T11:39:25;11.80;60.10
1107;DHT22;540;49.448;8.612;2023-02-11T11:41:56;11.80;59.80
1107;DHT22;540;49.448;8.612;2023-02-11T11:44:27;12.20;58.60
1107;DHT22;540;49.448;8.612;2023-02-11T11:47:26;12.40;58.00
1107;DHT22;540;49.448;8.612;2023-02-11T11:50:12;12.30;57.80
1107;DHT22;540;49.448;8.612;2023-02-11T11:52:45;13.40;57.10
1107;DHT22;540;49.448;8.612;2023-02-11T11:55:18;13.90;56.00
1107;DHT22;540;49.448;8.612;2023-02-11T11:57:47;14.10;54.50
1107;DHT22;540;49.448;8.612;2023-02-11T12:00:18;13.90;54.70
1107;DHT22;540;49.448;8.612;2023-02-11T12:03:05;13.90;54.80
1107;DHT22;540;49.448;8.612;2023-02-11T12:05:42;14.20;55.10
1107;DHT22;540;49.448;8.612;2023-02-11T12:08:18;14.10;54.70
1107;DHT22;540;49.448;8.612;2023-02-11T12:10:58;14.40;54.60
1107;DHT22;540;49.448;8.612;2023-02-11T12:13:39;14.00;53.60
1107;DHT22;540;49.448;8.612;2023-02-11T12:16:18;13.60;53.10
1107;DHT22;540;49.448;8.612;2023-02-11T12:19:08;14.20;53.40
1107;DHT22;540;49.448;8.612;2023-02-11T12:21:50;15.00;53.00
1107;DHT22;540;49.448;8.612;2023-02-11T12:24:35;14.80;51.30
1107;DHT22;540;49.448;8.612;2023-02-11T12:27:12;15.30;51.80
1107;DHT22;540;49.448;8.612;2023-02-11T12:29:52;15.40;50.90
1107;DHT22;540;49.448;8.612;2023-02-11T12:32:27;16.10;50.00
1107;DHT22;540;49.448;8.612;2023-02-11T12:35:24;15.40;49.40
1107;DHT22;540;49.448;8.612;2023-02-11T12:38:18;15.80;48.50
1107;DHT22;540;49.448;8.612;2023-02-11T12:40:55;16.60;48.40
1107;DHT22;540;49.448;8.612;2023-02-11T12:43:33;16.30;48.50
1107;DHT22;540;49.448;8.612;2023-02-11T12:46:18;16.80;47.90
1107;DHT22;540;49.448;8.612;2023-02-11T12:52:02;14.80;49.00
1107;DHT22;540;49.448;8.612;2023-02-11T12:54:37;14.30;51.10
1107;DHT22;540;49.448;8.612;2023-02-11T12:57:13;13.70;52.10
1107;DHT22;540;49.448;8.612;2023-02-11T12:59:50;13.20;53.60
1107;DHT22;540;49.448;8.612;2023-02-11T13:02:28;12.80;55.20
1107;DHT22;540;49.448;8.612;2023-02-11T13:05:04;12.60;56.00
1107;DHT22;540;49.448;8.612;2023-02-11T13:07:43;12.10;56.70
1107;DHT22;540;49.448;8.612;2023-02-11T13:10:24;12.00;58.00
1107;DHT22;540;49.448;8.612;2023-02-11T13:12:53;11.60;58.60
1107;DHT22;540;49.448;8.612;2023-02-11T13:15:40;11.30;60.00
1107;DHT22;540;49.448;8.612;2023-02-11T13:18:21;11.20;60.80
1107;DHT22;540;49.448;8.612;2023-02-11T13:20:56;10.90;62.00
1107;DHT22;540;49.448;8.612;2023-02-11T13:23:34;10.80;62.30
1107;DHT22;540;49.448;8.612;2023-02-11T13:26:11;10.90;62.90
1107;DHT22;540;49.448;8.612;2023-02-11T13:28:44;11.00;63.70
1107;DHT22;540;49.448;8.612;2023-02-11T13:31:13;11.10;64.50
1107;DHT22;540;49.448;8.612;2023-02-11T13:33:42;11.00;63.40
1107;DHT22;540;49.448;8.612;2023-02-11T13:36:22;11.10;64.00
1107;DHT22;540;49.448;8.612;2023-02-11T13:39:03;11.40;63.90
1107;DHT22;540;49.448;8.612;2023-02-11T13:41:37;11.30;63.60
1107;DHT22;540;49.448;8.612;2023-02-11T13:44:19;11.10;64.90
1107;DHT22;540;49.448;8.612;2023-02-11T13:46:51;11.30;65.40
1107;DHT22;540;49.448;8.612;2023-02-11T13:49:23;10.80;65.30
1107;DHT22;540;49.448;8.612;2023-02-11T13:51:53;11.10;65.70
1107;DHT22;540;49.448;8.612;2023-02-11T13:54:27;11.00;66.80
1107;DHT22;540;49.448;8.612;2023-02-11T13:57:18;10.80;67.80
1107;DHT22;540;49.448;8.612;2023-02-11T13:59:49;10.90;68.80
1107;DHT22;540;49.448;8.612;2023-02-11T14:02:23;11.00;68.80
1107;DHT22;540;49.448;8.612;2023-02-11T14:05:26;10.60;69.10
1107;DHT22;540;49.448;8.612;2023-02-11T14:08:15;10.50;70.20
1107;DHT22;540;49.448;8.612;2023-02-11T14:14:14;10.20;71.90
1107;DHT22;540;49.448;8.612;2023-02-11T14:19:49;10.30;71.90
1107;DHT22;540;49.448;8.612;2023-02-11T14:22:21;10.40;73.00
1107;DHT22;540;49.448;8.612;2023-02-11T14:24:54;10.30;74.10
1107;DHT22;540;49.448;8.612;2023-02-11T14:27:41;10.20;74.60
1107;DHT22;540;49.448;8.612;2023-02-11T14:30:32;10.10;74.40
1107;DHT22;540;49.448;8.612;2023-02-11T14:33:15;10.20;74.60
1107;DHT22;540;49.448;8.612;2023-02-11T14:35:53;9.80;76.40
1107;DHT22;540;49.448;8.612;2023-02-11T14:38:30;10.10;76.20
1107;DHT22;540;49.448;8.612;2023-02-11T14:41:03;9.80;77.80
1107;DHT22;540;49.448;8.612;2023-02-11T14:43:37;10.10;76.60
1107;DHT22;540;49.448;8.612;2023-02-11T14:46:05;9.40;77.80
1107;DHT22;540;49.448;8.612;2023-02-11T14:48:35;9.80;80.00
1107;DHT22;540;49.448;8.612;2023-02-11T14:51:07;9.40;82.90
1107;DHT22;540;49.448;8.612;2023-02-11T14:53:36;9.20;85.00
1107;DHT22;540;49.448;8.612;2023-02-11T14:56:17;9.50;85.90
1107;DHT22;540;49.448;8.612;2023-02-11T14:58:48;9.20;87.00
1107;DHT22;540;49.448;8.612;2023-02-11T15:01:29;9.40;87.60
1107;DHT22;540;49.448;8.612;2023-02-11T15:03:58;9.60;89.20
1107;DHT22;540;49.448;8.612;2023-02-11T15:06:29;9.30;89.70
1107;DHT22;540;49.448;8.612;2023-02-11T15:08:59;8.70;90.00
1107;DHT22;540;49.448;8.612;2023-02-11T15:11:30;9.30;90.70
1107;DHT22;540;49.448;8.612;2023-02-11T15:14:06;9.30;91.10
1107;DHT22;540;49.448;8.612;2023-02-11T15:16:40;9.20;91.80
1107;DHT22;540;49.448;8.612;2023-02-11T15:19:18;8.90;91.90
1107;DHT22;540;49.448;8.612;2023-02-11T15:21:47;9.10;92.60
1107;DHT22;540;49.448;8.612;2023-02-11T15:24:25;9.00;92.80
1107;DHT22;540;49.448;8.612;2023-02-11T15:26:57;9.20;93.10
1107;DHT22;540;49.448;8.612;2023-02-11T15:29:33;9.10;93.40
1107;DHT22;540;49.448;8.612;2023-02-11T15:32:06;9.20;93.50
1107;DHT22;540;49.448;8.612;2023-02-11T15:34:38;9.30;94.10
1107;DHT22;540;49.448;8.612;2023-02-11T15:37:06;8.70;93.70
1107;DHT22;540;49.448;8.612;2023-02-11T15:39:37;8.90;94.20
1107;DHT22;540;49.448;8.612;2023-02-11T15:42:21;8.90;94.50
1107;DHT22;540;49.448;8.612;2023-02-11T15:45:09;8.80;95.00
1107;DHT22;540;49.448;8.612;2023-02-11T15:47:38;9.00;95.00
1107;DHT22;540;49.448;8.612;2023-02-11T15:50:19;9.10;94.90
1107;DHT22;540;49.448;8.612;2023-02-11T15:52:48;8.80;95.50
1107;DHT22;540;49.448;8.612;2023-02-11T15:55:17;8.80;95.70
1107;DHT22;540;49.448;8.612;2023-02-11T15:57:50;8.90;96.70
1107;DHT22;540;49.448;8.612;2023-02-11T16:00:23;8.60;97.00
1107;DHT22;540;49.448;8.612;2023-02-11T16:02:52;8.80;96.90
1107;DHT22;540;49.448;8.612;2023-02-11T16:05:28;8.70;96.20
1107;DHT22;540;49.448;8.612;2023-02-11T16:07:57;8.40;95.40
1107;DHT22;540;49.448;8.612;2023-02-11T16:10:28;8.40;95.60
1107;DHT22;540;49.448;8.612;2023-02-11T16:13:17;8.60;95.80
1107;DHT22;540;49.448;8.612;2023-02-11T16:15:48;8.50;96.10
1107;DHT22;540;49.448;8.612;2023-02-11T16:18:25;8.30;95.60
1107;DHT22;540;49.448;8.612;2023-02-11T16:21:06;8.60;95.80
1107;DHT22;540;49.448;8.612;2023-02-11T16:23:35;8.60;95.90
1107;DHT22;540;49.448;8.612;2023-02-11T16:26:07;8.50;96.30
1107;DHT22;540;49.448;8.612;2023-02-11T16:28:36;8.30;96.20
1107;DHT22;540;49.448;8.612;2023-02-11T16:31:06;8.50;96.40
1107;DHT22;540;49.448;8.612;2023-02-11T16:33:35;8.30;95.70
1107;DHT22;540;49.448;8.612;2023-02-11T16:36:10;8.30;95.60
1107;DHT22;540;49.448;8.612;2023-02-11T16:38:38;8.60;95.40
1107;DHT22;540;49.448;8.612;2023-02-11T16:41:06;8.30;95.30
1107;DHT22;540;49.448;8.612;2023-02-11T16:43:37;8.30;95.20
1107;DHT22;540;49.448;8.612;2023-02-11T16:46:06;8.40;95.10
1107;DHT22;540;49.448;8.612;2023-02-11T16:48:36;8.50;95.20
1107;DHT22;540;49.448;8.612;2023-02-11T16:51:04;8.50;95.20
1107;DHT22;540;49.448;8.612;2023-02-11T16:53:34;8.20;95.00
1107;DHT22;540;49.448;8.612;2023-02-11T16:56:02;8.50;95.60
1107;DHT22;540;49.448;8.612;2023-02-11T16:58:30;8.30;95.40
1107;DHT22;540;49.448;8.612;2023-02-11T17:00:58;8.10;95.00
1107;DHT22;540;49.448;8.612;2023-02-11T17:03:27;8.40;95.30
1107;DHT22;540;49.448;8.612;2023-02-11T17:05:56;8.20;95.20
1107;DHT22;540;49.448;8.612;2023-02-11T17:08:24;8.20;95.20
1107;DHT22;540;49.448;8.612;2023-02-11T17:10:51;8.10;95.60
1107;DHT22;540;49.448;8.612;2023-02-11T17:13:20;8.20;95.50
1107;DHT22;540;49.448;8.612;2023-02-11T17:15:48;8.30;95.50
1107;DHT22;540;49.448;8.612;2023-02-11T17:18:16;8.50;95.50
1107;DHT22;540;49.448;8.612;2023-02-11T17:20:45;8.40;95.60
1107;DHT22;540;49.448;8.612;2023-02-11T17:23:13;8.50;95.40